NCAR-RAP Real-Time Weather Data

Output produced by METARs form (06 May 2021  16:29 UTC)
found at http://weather.rap.ucar.edu/surface/
 
KLGB 061553Z 12004KT 10SM OVC016 17/12 A3005 RMK AO2 SLP173 T01670122
KLGB 061453Z 15003KT 10SM R30/0400VP6000FT OVC014 16/12 A3004 RMK AO2 SLP173 T01560122 53019
KLGB 061353Z 18003KT 10SM OVC014 16/12 A3002 RMK AO2 SLP166 T01560122
KLGB 061253Z AUTO 18005KT 10SM OVC014 16/12 A3000 RMK AO2 SLP157 T01560122
KLGB 061153Z AUTO 00000KT 9SM OVC014 16/12 A2999 RMK AO2 SLP154 T01560122 10161 20156 53001
KLGB 061149Z AUTO 22004KT 9SM OVC014 16/12 A2999 RMK AO2
KLGB 061130Z AUTO 17004KT 8SM OVC015 16/12 A2998 RMK AO2 T01610122
KLGB 061053Z AUTO VRB03KT 9SM OVC014 16/12 A2998 RMK AO2 SLP151 T01610122
KLGB 060953Z AUTO 00000KT 10SM OVC012 16/13 A2998 RMK AO2 SLP153 T01610128
KLGB 060853Z AUTO 00000KT 9SM OVC011 16/13 A2999 RMK AO2 SLP156 T01610128 58008
KLGB 060753Z AUTO 00000KT 9SM OVC010 16/13 A3002 RMK AO2 SLP164 T01610133 402560156
KLGB 060653Z AUTO VRB03KT 10SM OVC010 16/13 A3002 RMK AO2 SLP165 T01560128
KLGB 060553Z 16003KT 8SM OVC010 16/13 A3002 RMK AO2 SLP165 T01560128 10256 20156 51021
KLGB 060453Z 18005KT 9SM OVC012 16/13 A3001 RMK AO2 SLP160 T01560133
KLGB 060425Z 16007KT 10SM BKN012 16/13 A2999 RMK AO2 T01610128
KLGB 060353Z 32003KT 9SM FEW014 16/12 A2998 RMK AO2 SLP151 T01610122